Time;durP1;ratioP1;P1;durP2;ratioP2;P2;SDS_P1;SDS_P2;PMS_P1;PMS_P2;Temp;Humidity;BMP_temperature;BMP_pressure;BME280_temperature;BME280_humidity;BME280_pressure;Samples;Min_cycle;Max_cycle;Signal;HPM_P1;HPM_P2
2022/12/14 00:01:24;;;;;;;25.10;13.80;;;;;;;-6.67;81.89;100081.59;105649;1293;59014;-72
2022/12/14 00:03:52;;;;;;;26.30;13.80;;;;;;;-6.67;82.07;100077.29;105686;1288;73126;-73
2022/12/14 00:06:21;;;;;;;27.60;14.30;;;;;;;-6.65;82.20;100076.68;105670;1291;71631;-73
2022/12/14 00:08:50;;;;;;;28.10;14.60;;;;;;;-6.63;81.98;100077.77;105590;1292;72451;-73
2022/12/14 00:11:21;;;;;;;28.20;14.90;;;;;;;-6.61;82.45;100077.50;105687;1292;60727;-73
2022/12/14 00:14:06;;;;;;;25.20;14.30;;;;;;;-6.59;82.28;100077.05;105596;1292;59163;-72
2022/12/14 00:16:33;;;;;;;26.20;14.40;;;;;;;-6.58;82.29;100072.52;105543;1291;74893;-72
2022/12/14 00:19:01;;;;;;;26.50;15.00;;;;;;;-6.57;82.39;100071.61;105599;1294;69863;-72
2022/12/14 00:21:28;;;;;;;26.30;14.60;;;;;;;-6.57;82.36;100070.73;105537;1284;71102;-73
2022/12/14 00:23:57;;;;;;;23.00;14.30;;;;;;;-6.55;82.24;100067.05;105684;1289;60642;-72
2022/12/14 00:26:29;;;;;;;25.90;14.30;;;;;;;-6.53;82.15;100066.58;105657;1290;59404;-72
2022/12/14 00:28:57;;;;;;;25.40;14.00;;;;;;;-6.52;82.06;100065.52;105630;1290;74716;-72
2022/12/14 00:31:24;;;;;;;24.30;14.00;;;;;;;-6.53;81.91;100064.02;105497;1292;69060;-72
2022/12/14 00:33:51;;;;;;;24.80;14.00;;;;;;;-6.55;81.72;100065.30;105538;1285;72815;-72
2022/12/14 00:36:18;;;;;;;26.60;14.00;;;;;;;-6.55;81.79;100059.45;105710;1283;59416;-72
2022/12/14 00:38:45;;;;;;;24.70;14.20;;;;;;;-6.56;81.53;100057.64;105540;1294;59218;-72
2022/12/14 00:41:11;;;;;;;23.80;13.10;;;;;;;-6.59;81.51;100053.63;105587;1291;75125;-72
2022/12/14 00:43:38;;;;;;;26.90;14.10;;;;;;;-6.63;81.49;100050.06;105544;1283;71054;-72
2022/12/14 00:46:05;;;;;;;25.40;14.20;;;;;;;-6.67;81.24;100049.07;105655;1291;71807;-72
2022/12/14 00:48:32;;;;;;;24.40;13.80;;;;;;;-6.68;81.41;100050.33;105549;1290;61688;-72
2022/12/14 00:50:59;;;;;;;24.20;14.50;;;;;;;-6.68;81.55;100047.41;105717;1291;58857;-74
2022/12/14 00:53:25;;;;;;;27.10;14.30;;;;;;;-6.68;81.71;100046.90;105546;1284;74311;-72
2022/12/14 00:55:52;;;;;;;25.80;14.00;;;;;;;-6.69;81.66;100044.02;105680;1289;59142;-72
2022/12/14 00:58:21;;;;;;;25.50;14.20;;;;;;;-6.70;81.74;100042.00;105554;1292;59482;-72
2022/12/14 01:01:01;;;;;;;24.40;13.20;;;;;;;-6.69;81.94;100038.38;105561;1294;60438;-73
2022/12/14 01:03:27;;;;;;;25.20;14.60;;;;;;;-6.68;82.16;100035.23;105517;1291;60138;-72
2022/12/14 01:05:55;;;;;;;24.90;14.50;;;;;;;-6.68;81.83;100035.19;105606;1292;73765;-72
2022/12/14 01:08:22;;;;;;;25.20;14.50;;;;;;;-6.68;81.83;100036.58;105543;1293;68945;-72
2022/12/14 01:10:48;;;;;;;25.30;14.40;;;;;;;-6.68;81.76;100040.56;105557;1293;70114;-72
2022/12/14 01:13:14;;;;;;;25.30;13.80;;;;;;;-6.71;81.76;100037.43;105669;1291;60461;-72
2022/12/14 01:15:41;;;;;;;27.50;14.60;;;;;;;-6.71;81.93;100036.94;105663;1290;59324;-72
2022/12/14 01:18:08;;;;;;;28.00;14.60;;;;;;;-6.70;81.81;100037.37;105627;1294;75077;-72
2022/12/14 01:20:34;;;;;;;23.40;13.50;;;;;;;-6.69;82.05;100037.65;105599;1291;59347;-72
2022/12/14 01:23:00;;;;;;;23.50;14.00;;;;;;;-6.68;81.75;100036.41;105630;1292;59295;-73
2022/12/14 01:25:27;;;;;;;24.60;13.60;;;;;;;-6.69;81.59;100037.83;105553;1291;59072;-73
2022/12/14 01:27:53;;;;;;;22.20;12.90;;;;;;;-6.70;81.66;100037.20;105672;1290;59513;-73
2022/12/14 01:30:20;;;;;;;24.60;13.10;;;;;;;-6.69;82.02;100033.55;105614;1292;59957;-73
2022/12/14 01:32:46;;;;;;;24.00;13.60;;;;;;;-6.69;81.86;100033.38;105646;1293;59296;-73
2022/12/14 01:35:13;;;;;;;25.10;13.90;;;;;;;-6.67;82.19;100032.42;105588;1295;59373;-73
2022/12/14 01:37:39;;;;;;;25.20;14.00;;;;;;;-6.66;82.13;100028.89;105579;1295;59076;-73
2022/12/14 01:40:06;;;;;;;23.40;14.00;;;;;;;-6.64;82.19;100025.19;105586;1290;59506;-73
2022/12/14 01:42:36;;;;;;;25.40;13.50;;;;;;;-6.63;81.87;100018.45;105659;1292;58979;-73
2022/12/14 01:45:04;;;;;;;23.10;14.00;;;;;;;-6.64;81.87;100019.67;105657;1294;69541;-73
2022/12/14 01:47:40;;;;;;;26.30;13.50;;;;;;;-6.65;81.84;100019.05;105570;1292;71494;-72
2022/12/14 01:50:36;;;;;;;26.90;15.40;;;;;;;-6.65;81.66;100018.23;105688;1291;61784;-73
2022/12/14 01:53:10;;;;;;;25.60;14.20;;;;;;;-6.66;82.06;100014.78;105639;1297;60140;-72
2022/12/14 01:55:40;;;;;;;26.30;14.20;;;;;;;-6.65;82.03;100010.13;105546;1292;73633;-72
2022/12/14 01:58:17;;;;;;;27.00;15.10;;;;;;;-6.66;81.92;100006.20;105564;1284;70578;-72
2022/12/14 02:00:44;;;;;;;26.50;14.10;;;;;;;-6.66;81.87;100006.55;105568;1284;71335;-72
2022/12/14 02:03:25;;;;;;;26.10;14.60;;;;;;;-6.66;81.96;100003.99;105513;1292;60427;-72
2022/12/14 02:05:59;;;;;;;25.50;14.30;;;;;;;-6.67;81.90;100001.46;105624;1292;59158;-72
2022/12/14 02:08:27;;;;;;;24.60;14.00;;;;;;;-6.67;82.01;99999.92;105710;1292;73797;-72
2022/12/14 02:10:55;;;;;;;25.70;14.30;;;;;;;-6.69;81.77;99996.25;105637;1289;70849;-72
2022/12/14 02:13:22;;;;;;;24.10;14.00;;;;;;;-6.71;81.92;99991.35;105531;1290;72281;-72
2022/12/14 02:15:50;;;;;;;26.30;15.00;;;;;;;-6.74;81.77;99991.50;105714;1289;59548;-72
2022/12/14 02:18:20;;;;;;;27.00;14.60;;;;;;;-6.77;81.95;99990.29;105391;1301;225517;-72
2022/12/14 02:21:02;;;;;;;25.60;15.00;;;;;;;-6.78;81.96;99986.23;105558;1291;72104;-72
2022/12/14 02:23:50;;;;;;;26.00;14.60;;;;;;;-6.79;82.14;99984.92;105616;1292;70867;-72
2022/12/14 02:26:31;;;;;;;24.90;14.20;;;;;;;-6.81;82.00;99989.13;105688;1290;71446;-72
2022/12/14 02:29:32;;;;;;;26.30;14.50;;;;;;;-6.81;82.17;99988.61;105719;1287;60834;-72
2022/12/14 02:32:46;;;;;;;24.60;13.90;;;;;;;-6.84;82.07;99984.15;105646;1289;59307;-72
2022/12/14 02:35:41;;;;;;;28.70;14.60;;;;;;;-6.87;82.25;99977.96;105584;1292;72934;-72
2022/12/14 02:38:49;;;;;;;25.20;14.40;;;;;;;-6.89;82.34;99972.57;105686;1292;68919;-72
2022/12/14 02:41:27;;;;;;;24.10;14.30;;;;;;;-6.94;82.29;99967.86;105516;1292;71756;-72
2022/12/14 02:44:12;;;;;;;24.40;14.00;;;;;;;-6.99;82.19;99964.10;105722;1289;60519;-72
2022/12/14 02:46:46;;;;;;;23.00;13.40;;;;;;;-7.02;82.49;99958.28;105696;1292;59283;-72
2022/12/14 02:49:37;;;;;;;25.50;14.60;;;;;;;-7.05;82.36;99954.13;105590;1298;74761;-72
2022/12/14 02:52:14;;;;;;;23.60;14.40;;;;;;;-7.07;82.70;99949.75;105688;1290;68518;-72
2022/12/14 02:54:47;;;;;;;26.00;14.70;;;;;;;-7.07;82.80;99949.95;105608;1292;70421;-72
2022/12/14 02:57:32;;;;;;;21.30;13.90;;;;;;;-7.07;82.86;99947.73;105700;1290;61206;-72
2022/12/14 03:00:02;;;;;;;25.80;14.40;;;;;;;-7.08;83.06;99947.94;105693;1292;59233;-73
2022/12/14 03:02:29;;;;;;;26.20;14.40;;;;;;;-7.11;82.67;99944.98;105541;1292;74644;-72
2022/12/14 03:04:57;;;;;;;26.80;14.50;;;;;;;-7.14;82.68;99942.95;105563;1292;70463;-72
2022/12/14 03:07:31;;;;;;;24.60;13.90;;;;;;;-7.19;82.76;99937.33;105651;1290;73222;-73
2022/12/14 03:10:17;;;;;;;24.80;13.90;;;;;;;-7.20;83.10;99934.45;105541;1287;61239;-72
2022/12/14 03:12:49;;;;;;;23.90;13.80;;;;;;;-7.21;83.07;99934.54;105673;1297;60604;-72
2022/12/14 03:15:18;;;;;;;25.10;14.40;;;;;;;-7.22;83.00;99938.90;105555;1295;72976;-72
2022/12/14 03:17:50;;;;;;;23.40;13.50;;;;;;;-7.25;83.25;99934.55;105536;1284;69843;-72
2022/12/14 03:20:23;;;;;;;22.40;13.00;;;;;;;-7.28;82.93;99931.14;105487;1292;71481;-72
2022/12/14 03:23:13;;;;;;;25.50;13.60;;;;;;;-7.35;82.89;99925.50;105516;1291;61204;-72
2022/12/14 03:26:24;;;;;;;23.60;13.90;;;;;;;-7.43;82.61;99920.72;105682;1292;58998;-72
2022/12/14 03:28:59;;;;;;;24.10;14.20;;;;;;;-7.49;82.88;99915.87;105096;1298;73778;-72
2022/12/14 03:31:51;;;;;;;22.90;13.00;;;;;;;-7.53;82.94;99910.95;105173;1297;70921;-72
2022/12/14 03:34:23;;;;;;;22.40;12.40;;;;;;;-7.58;83.04;99906.21;105483;1292;72903;-72
2022/12/14 03:36:58;;;;;;;24.70;12.60;;;;;;;-7.60;83.37;99904.27;105592;1297;61337;-72
2022/12/14 03:39:31;;;;;;;24.40;13.40;;;;;;;-7.62;83.80;99897.83;105705;1292;59945;-72
2022/12/14 03:42:16;;;;;;;24.10;13.70;;;;;;;-7.62;83.68;99896.48;105679;1287;73491;-73
2022/12/14 03:44:52;;;;;;;21.70;12.90;;;;;;;-7.65;83.69;99891.30;105605;1290;69583;-72
2022/12/14 03:47:51;;;;;;;23.10;12.80;;;;;;;-7.66;83.85;99889.14;105561;1292;72438;-72
2022/12/14 03:50:40;;;;;;;21.30;12.40;;;;;;;-7.67;84.02;99884.56;105559;1289;61868;-72
2022/12/14 03:53:25;;;;;;;24.00;12.90;;;;;;;-7.68;84.28;99880.30;105706;1292;59146;-72
2022/12/14 03:56:15;;;;;;;21.30;12.30;;;;;;;-7.70;84.23;99874.20;105686;1292;73531;-72
2022/12/14 03:58:49;;;;;;;22.80;12.70;;;;;;;-7.72;84.26;99875.16;105519;1295;71160;-72
2022/12/14 04:01:34;;;;;;;20.90;12.50;;;;;;;-7.73;84.25;99871.11;105492;1290;70335;-72
2022/12/14 04:04:15;;;;;;;21.80;12.70;;;;;;;-7.76;84.14;99873.16;105669;1299;61954;-72
2022/12/14 04:06:44;;;;;;;21.90;12.70;;;;;;;-7.80;84.01;99876.45;105678;1288;60528;-72
2022/12/14 04:09:42;;;;;;;22.40;12.90;;;;;;;-7.84;84.20;99876.13;105692;1291;73777;-72
2022/12/14 04:21:42;;;;;;;25.30;12.90;;;;;;;-7.90;84.57;99850.70;105132;1296;60884;-72
2022/12/14 04:27:23;;;;;;;23.30;13.40;;;;;;;-7.93;84.70;99839.88;105593;1285;71980;-72
2022/12/14 04:29:55;;;;;;;22.30;13.10;;;;;;;-7.95;84.53;99840.83;105679;1284;72455;-73
2022/12/14 04:32:35;;;;;;;21.40;12.60;;;;;;;-8.00;84.73;99838.33;105685;1290;61834;-72
2022/12/14 04:35:12;;;;;;;21.90;12.80;;;;;;;-8.00;84.67;99841.08;105561;1296;59458;-73
2022/12/14 04:37:44;;;;;;;22.20;12.10;;;;;;;-8.04;84.22;99838.36;105508;1297;72552;-72
2022/12/14 04:40:20;;;;;;;22.20;12.00;;;;;;;-8.09;84.24;99834.85;105673;1289;70011;-72
2022/12/14 04:42:53;;;;;;;22.90;11.40;;;;;;;-8.13;84.40;99835.06;105544;1293;71465;-72
2022/12/14 04:45:25;;;;;;;20.50;11.30;;;;;;;-8.17;84.29;99835.09;105577;1290;60050;-72
2022/12/14 04:48:02;;;;;;;21.80;11.90;;;;;;;-8.20;84.34;99834.00;105650;1284;59410;-72
2022/12/14 04:50:38;;;;;;;21.20;11.90;;;;;;;-8.22;84.18;99836.71;105549;1292;73188;-72
2022/12/14 04:53:27;;;;;;;18.70;10.80;;;;;;;-8.23;84.52;99829.86;105685;1292;71114;-72
2022/12/14 04:56:03;;;;;;;19.00;10.60;;;;;;;-8.22;84.61;99827.42;105551;1297;71888;-72
2022/12/14 04:58:30;;;;;;;20.70;11.60;;;;;;;-8.20;84.63;99823.05;105676;1284;59728;-72
2022/12/14 05:01:34;;;;;;;17.90;10.70;;;;;;;-8.19;84.86;99819.55;105591;1292;58974;-72
2022/12/14 05:04:22;;;;;;;20.70;11.40;;;;;;;-8.15;84.76;99819.70;105606;1290;73557;-72
2022/12/14 05:06:59;;;;;;;20.90;11.20;;;;;;;-8.13;84.75;99817.75;105735;1290;68568;-72
2022/12/14 05:09:31;;;;;;;20.60;11.20;;;;;;;-8.12;84.87;99821.45;105685;1294;72276;-72
2022/12/14 05:12:06;;;;;;;20.10;11.20;;;;;;;-8.12;84.82;99818.02;105589;1292;62123;-72
2022/12/14 05:14:38;;;;;;;21.50;12.00;;;;;;;-8.13;84.63;99815.83;105689;1284;59630;-72
2022/12/14 05:17:06;;;;;;;21.60;11.50;;;;;;;-8.15;84.21;99807.19;105611;1292;74704;-72
2022/12/14 05:19:36;;;;;;;20.10;11.60;;;;;;;-8.17;84.55;99806.98;105538;1286;70035;-72
2022/12/14 05:22:06;;;;;;;20.50;11.50;;;;;;;-8.20;84.14;99806.24;105636;1294;72410;-72
2022/12/14 05:24:33;;;;;;;18.40;11.00;;;;;;;-8.23;83.93;99804.67;105630;1290;62485;-71
2022/12/14 05:26:59;;;;;;;23.10;11.80;;;;;;;-8.27;83.95;99808.98;105518;1292;60102;-71
2022/12/14 05:29:26;;;;;;;20.70;11.50;;;;;;;-8.31;84.04;99810.73;105578;1292;59057;-71
2022/12/14 05:31:52;;;;;;;22.30;11.80;;;;;;;-8.35;83.69;99801.67;105661;1301;59515;-72
2022/12/14 05:34:19;;;;;;;24.50;13.70;;;;;;;-8.35;84.28;99801.69;105662;1291;59818;-72
2022/12/14 05:36:45;;;;;;;21.80;12.80;;;;;;;-8.36;84.35;99803.98;105566;1292;59131;-72
2022/12/14 05:39:13;;;;;;;21.20;12.50;;;;;;;-8.40;83.91;99798.86;105492;1293;59630;-72
2022/12/14 05:41:40;;;;;;;20.20;11.80;;;;;;;-8.45;83.66;99795.38;105603;1291;73698;-72
2022/12/14 05:44:06;;;;;;;20.00;11.70;;;;;;;-8.49;83.81;99786.98;105615;1292;71356;-71
2022/12/14 05:46:33;;;;;;;21.50;11.70;;;;;;;-8.52;83.87;99784.22;105583;1290;72465;-72
2022/12/14 05:48:59;;;;;;;20.80;11.30;;;;;;;-8.53;83.91;99784.11;105575;1291;60395;-72
2022/12/14 05:51:26;;;;;;;21.00;12.10;;;;;;;-8.56;83.91;99780.65;105665;1284;59413;-72
2022/12/14 05:53:52;;;;;;;20.30;11.60;;;;;;;-8.58;84.18;99782.80;105682;1291;59496;-72
2022/12/14 05:56:19;;;;;;;20.50;11.40;;;;;;;-8.59;83.99;99783.21;105570;1291;59015;-72
2022/12/14 05:58:48;;;;;;;21.40;13.00;;;;;;;-8.62;83.96;99779.02;105497;1295;71918;-72
2022/12/14 06:01:15;;;;;;;23.40;12.40;;;;;;;-8.61;84.25;99771.63;105549;1292;60213;-72
2022/12/14 06:03:45;;;;;;;21.00;11.70;;;;;;;-8.62;84.16;99767.40;105584;1289;60332;-72
2022/12/14 06:06:13;;;;;;;20.80;11.30;;;;;;;-8.65;84.11;99766.86;105712;1291;74703;-72
2022/12/14 06:08:43;;;;;;;19.10;12.00;;;;;;;-8.69;83.92;99758.96;105594;1284;71193;-73
2022/12/14 06:11:15;;;;;;;27.30;15.70;;;;;;;-8.70;84.42;99752.87;105544;1289;71199;-73
2022/12/14 06:13:42;;;;;;;25.00;14.80;;;;;;;-8.70;84.32;99747.92;105582;1292;61814;-73
2022/12/14 06:16:21;;;;;;;28.20;16.10;;;;;;;-8.70;84.33;99741.91;105687;1291;60209;-73
2022/12/14 06:18:52;;;;;;;25.40;15.70;;;;;;;-8.69;84.52;99739.11;105577;1284;75115;-73
2022/12/14 06:21:21;;;;;;;29.40;17.90;;;;;;;-8.68;84.41;99735.97;105546;1292;69651;-73
2022/12/14 06:23:47;;;;;;;24.90;13.60;;;;;;;-8.67;84.34;99736.96;105552;1289;73017;-73
2022/12/14 06:26:15;;;;;;;23.30;12.60;;;;;;;-8.69;84.20;99736.69;105649;1290;59781;-73
2022/12/14 06:28:42;;;;;;;19.80;11.40;;;;;;;-8.73;84.19;99734.85;105469;1294;59247;-73
2022/12/14 06:31:15;;;;;;;19.80;10.80;;;;;;;-8.76;84.15;99730.91;105564;1297;72618;-73
2022/12/14 06:33:42;;;;;;;20.30;11.00;;;;;;;-8.80;83.87;99723.73;105711;1289;70153;-73
2022/12/14 06:36:23;;;;;;;20.30;11.70;;;;;;;-8.83;84.18;99723.20;105531;1296;72550;-73
2022/12/14 06:38:50;;;;;;;21.10;11.80;;;;;;;-8.87;84.17;99715.13;105453;1289;60438;-73
2022/12/14 06:41:18;;;;;;;22.20;11.80;;;;;;;-8.87;84.25;99721.48;105557;1287;59168;-73
2022/12/14 06:43:44;;;;;;;19.10;10.90;;;;;;;-8.87;84.31;99721.50;105708;1289;74833;-73
2022/12/14 06:46:17;;;;;;;18.50;10.20;;;;;;;-8.91;84.23;99723.42;105655;1291;70249;-73
2022/12/14 06:48:51;;;;;;;18.30;10.30;;;;;;;-8.96;84.10;99716.80;105564;1289;72529;-73
2022/12/14 06:51:18;;;;;;;18.10;10.30;;;;;;;-8.97;84.15;99714.13;105577;1293;60585;-73
2022/12/14 06:53:45;;;;;;;19.20;11.20;;;;;;;-8.98;84.22;99709.20;105730;1290;60076;-73
2022/12/14 06:56:16;;;;;;;20.10;11.10;;;;;;;-8.97;84.38;99704.35;105326;1281;74606;-73
2022/12/14 06:58:43;;;;;;;20.10;10.80;;;;;;;-8.96;84.69;99706.05;105718;1289;69879;-76
2022/12/14 07:01:19;;;;;;;19.90;11.10;;;;;;;-8.94;84.49;99708.00;105558;1284;72564;-76
2022/12/14 07:03:48;;;;;;;20.40;11.40;;;;;;;-8.90;85.00;99710.16;105566;1290;61570;-76
2022/12/14 07:06:15;;;;;;;19.90;10.60;;;;;;;-8.84;84.92;99705.74;105679;1293;60619;-76
2022/12/14 07:08:41;;;;;;;19.60;10.80;;;;;;;-8.80;84.81;99699.91;105623;1292;58985;-76
2022/12/14 07:11:11;;;;;;;19.50;10.30;;;;;;;-8.76;84.90;99698.19;105720;1298;58955;-76
2022/12/14 07:13:38;;;;;;;18.10;9.90;;;;;;;-8.75;84.46;99701.20;105182;1292;72410;-76
2022/12/14 07:16:07;;;;;;;18.50;10.40;;;;;;;-8.74;84.52;99700.27;105713;1291;60421;-76
2022/12/14 07:18:33;;;;;;;17.30;10.40;;;;;;;-8.72;84.46;99698.83;105715;1290;59598;-76
2022/12/14 07:21:03;;;;;;;16.70;9.80;;;;;;;-8.69;84.43;99699.15;105734;1292;60189;-76
2022/12/14 07:23:32;;;;;;;18.40;10.30;;;;;;;-8.65;84.70;99695.18;105651;1290;70732;-76
2022/12/14 07:26:01;;;;;;;17.80;10.40;;;;;;;-8.63;84.44;99690.33;105516;1295;71937;-75
2022/12/14 07:28:28;;;;;;;18.70;11.00;;;;;;;-8.61;84.15;99687.84;105628;1289;60535;-75
2022/12/14 07:30:56;;;;;;;19.40;10.60;;;;;;;-8.58;84.42;99683.75;105709;1284;60910;-75
2022/12/14 07:33:23;;;;;;;18.90;10.80;;;;;;;-8.57;84.10;99679.20;105651;1290;73394;-76
2022/12/14 07:35:50;;;;;;;18.00;9.80;;;;;;;-8.54;84.30;99678.55;105557;1293;68914;-76
2022/12/14 07:38:17;;;;;;;17.20;10.10;;;;;;;-8.52;84.36;99675.52;105714;1286;71159;-76
2022/12/14 07:40:44;;;;;;;20.80;11.30;;;;;;;-8.48;84.36;99674.81;105626;1291;61823;-76
2022/12/14 07:43:10;;;;;;;22.30;12.00;;;;;;;-8.41;84.46;99673.23;105699;1292;58962;-76
2022/12/14 07:45:36;;;;;;;21.90;12.30;;;;;;;-8.36;84.32;99676.22;105760;1290;58974;-76
2022/12/14 07:48:05;;;;;;;22.40;14.00;;;;;;;-8.30;84.36;99672.80;105714;1289;71329;-76
2022/12/14 07:50:32;;;;;;;22.90;13.50;;;;;;;-8.24;84.25;99670.79;105771;1284;71931;-76
2022/12/14 07:52:58;;;;;;;22.80;12.50;;;;;;;-8.20;83.93;99672.77;105694;1289;58862;-76
2022/12/14 07:55:25;;;;;;;20.30;12.00;;;;;;;-8.18;83.72;99671.67;105814;1289;58985;-76
2022/12/14 07:57:51;;;;;;;20.30;11.40;;;;;;;-8.15;83.76;99670.68;105684;1291;58326;-76
2022/12/14 08:00:18;;;;;;;20.90;11.40;;;;;;;-8.13;83.64;99663.18;105834;1286;59797;-76
2022/12/14 08:02:44;;;;;;;22.60;12.50;;;;;;;-8.09;83.89;99664.17;105790;1282;58860;-76
2022/12/14 08:05:11;;;;;;;20.90;12.70;;;;;;;-8.04;83.91;99659.98;105781;1287;59122;-76
2022/12/14 08:07:38;;;;;;;22.30;13.00;;;;;;;-8.00;83.70;99650.44;105744;1292;61115;-76
2022/12/14 08:10:05;;;;;;;22.60;13.10;;;;;;;-7.93;83.79;99649.05;105779;1290;72941;-76
2022/12/14 08:12:32;;;;;;;23.00;12.90;;;;;;;-7.85;83.71;99652.93;105693;1285;69323;-76
2022/12/14 08:14:58;;;;;;;21.10;12.50;;;;;;;-7.78;84.04;99659.23;105706;1284;59324;-76
2022/12/14 08:17:24;;;;;;;26.50;14.70;;;;;;;-7.71;83.43;99661.77;105671;1294;59067;-76
2022/12/14 08:19:51;;;;;;;26.30;14.70;;;;;;;-7.67;82.93;99666.00;105780;1291;59006;-76
2022/12/14 08:22:17;;;;;;;24.60;13.50;;;;;;;-7.64;82.75;99662.08;105802;1289;58860;-76
2022/12/14 08:24:44;;;;;;;26.40;13.90;;;;;;;-7.59;83.08;99659.89;105595;1293;59726;-76
2022/12/14 08:27:15;;;;;;;24.20;14.50;;;;;;;-7.51;83.27;99661.54;105559;1290;71762;-76
2022/12/14 08:29:41;;;;;;;29.20;16.70;;;;;;;-7.47;82.99;99663.85;105625;1290;60688;-76
2022/12/14 08:32:08;;;;;;;26.90;15.80;;;;;;;-7.41;83.00;99666.61;105658;1292;58780;-76
2022/12/14 08:34:34;;;;;;;29.00;15.20;;;;;;;-7.35;83.05;99662.52;105775;1291;60629;-76
2022/12/14 08:37:01;;;;;;;23.10;14.60;;;;;;;-7.27;83.06;99666.38;105779;1290;59499;-76
2022/12/14 08:39:27;;;;;;;29.60;16.00;;;;;;;-7.20;82.85;99668.20;105675;1284;59080;-76
2022/12/14 08:41:54;;;;;;;29.10;16.50;;;;;;;-7.12;82.68;99670.48;105758;1283;59326;-76
2022/12/14 08:44:20;;;;;;;24.00;13.90;;;;;;;-7.05;82.78;99670.73;105749;1283;58934;-76
2022/12/14 08:46:47;;;;;;;24.10;13.10;;;;;;;-6.99;82.37;99670.06;105682;1291;59019;-76
2022/12/14 08:49:13;;;;;;;22.30;13.50;;;;;;;-7.00;81.54;99669.64;105715;1293;59100;-76
2022/12/14 08:51:40;;;;;;;27.30;14.40;;;;;;;-7.00;81.32;99672.36;105721;1286;59782;-76
2022/12/14 08:54:07;;;;;;;33.80;17.70;;;;;;;-6.95;81.88;99674.65;105724;1283;62446;-76
2022/12/14 08:56:33;;;;;;;38.30;20.70;;;;;;;-6.88;81.76;99677.02;105775;1285;59288;-76
2022/12/14 08:59:00;;;;;;;38.80;21.40;;;;;;;-6.82;81.66;99676.84;105715;1291;59080;-76
2022/12/14 09:01:29;;;;;;;30.70;17.20;;;;;;;-6.76;81.61;99678.05;105833;1283;58961;-75
2022/12/14 09:04:05;;;;;;;32.20;17.30;;;;;;;-6.68;81.51;99678.23;105725;1290;70732;-75
2022/12/14 09:06:34;;;;;;;30.70;17.20;;;;;;;-6.64;81.24;99678.52;105717;1284;62378;-75
2022/12/14 09:09:00;;;;;;;32.90;18.40;;;;;;;-6.60;81.16;99674.65;105630;1294;58735;-75
2022/12/14 09:11:28;;;;;;;33.50;18.30;;;;;;;-6.58;80.81;99671.61;105640;1292;59614;-77
2022/12/14 09:13:55;;;;;;;36.90;18.80;;;;;;;-6.57;80.56;99671.03;105738;1292;70504;-75
2022/12/14 09:16:25;;;;;;;33.40;18.70;;;;;;;-6.54;80.78;99666.92;105826;1290;70777;-77
2022/12/14 09:18:52;;;;;;;28.90;16.60;;;;;;;-6.50;80.84;99667.92;105682;1288;60725;-76
2022/12/14 09:21:19;;;;;;;29.90;15.80;;;;;;;-6.48;80.59;99665.73;105772;1283;58596;-76
2022/12/14 09:23:45;;;;;;;27.20;15.80;;;;;;;-6.48;80.24;99663.16;105593;1293;73436;-77
2022/12/14 09:26:18;;;;;;;27.80;14.90;;;;;;;-6.48;80.43;99665.56;105609;1293;70222;-76
2022/12/14 09:28:50;;;;;;;30.60;17.30;;;;;;;-6.46;80.44;99665.80;105801;1281;70610;-76
2022/12/14 09:31:19;;;;;;;23.90;15.00;;;;;;;-6.43;80.40;99666.10;105685;1286;60984;-76
2022/12/14 09:33:46;;;;;;;26.20;14.20;;;;;;;-6.41;80.41;99664.43;105704;1287;60414;-76
2022/12/14 09:36:20;;;;;;;26.00;15.50;;;;;;;-6.37;80.53;99661.95;105745;1290;73984;-76
2022/12/14 09:38:48;;;;;;;25.90;15.10;;;;;;;-6.34;80.45;99655.90;105699;1292;69907;-76
2022/12/14 09:41:33;;;;;;;28.50;16.70;;;;;;;-6.33;80.14;99654.14;105554;1286;71729;-77
2022/12/14 09:44:16;;;;;;;29.10;16.70;;;;;;;-6.31;80.07;99651.63;105828;1285;59508;-76
2022/12/14 09:47:13;;;;;;;29.70;16.50;;;;;;;-6.32;79.83;99653.42;105758;1284;59232;-76
2022/12/14 09:49:50;;;;;;;28.10;17.20;;;;;;;-6.35;79.66;99648.92;105824;1283;74289;-76
2022/12/14 09:52:21;;;;;;;28.90;17.00;;;;;;;-6.32;79.89;99656.84;105624;1292;71224;-75
2022/12/14 09:54:49;;;;;;;29.00;17.10;;;;;;;-6.28;80.05;99654.02;105587;1285;73311;-76
2022/12/14 09:57:23;;;;;;;29.80;17.00;;;;;;;-6.23;80.12;99651.30;105833;1282;60769;-76
2022/12/14 09:59:52;;;;;;;32.90;17.90;;;;;;;-6.19;80.13;99648.64;105687;1290;60007;-76
2022/12/14 10:02:28;;;;;;;30.20;18.50;;;;;;;-6.17;79.76;99639.56;105680;1285;72261;-76
2022/12/14 10:05:15;;;;;;;31.70;18.30;;;;;;;-6.15;79.89;99642.02;105760;1290;70894;-76
2022/12/14 10:08:20;;;;;;;30.80;17.80;;;;;;;-6.15;79.70;99640.65;105659;1283;72561;-75
2022/12/14 10:11:01;;;;;;;71.10;35.00;;;;;;;-6.14;79.97;99642.83;105547;1290;61106;-75
2022/12/14 10:13:43;;;;;;;70.80;34.80;;;;;;;-6.12;79.79;99637.40;105705;1290;59830;-75
2022/12/14 10:16:29;;;;;;;128.90;58.90;;;;;;;-6.10;80.02;99628.85;105786;1291;74851;-75
2022/12/14 10:19:18;;;;;;;76.90;40.60;;;;;;;-6.07;79.91;99625.72;105715;1291;71191;-75
2022/12/14 10:21:56;;;;;;;53.60;29.40;;;;;;;-6.09;79.55;99623.41;105821;1290;70290;-75
2022/12/14 10:24:37;;;;;;;39.00;22.50;;;;;;;-6.09;79.56;99626.54;105785;1290;62183;-75
2022/12/14 10:27:07;;;;;;;35.30;19.80;;;;;;;-6.09;79.50;99626.35;105716;1284;59008;-75
2022/12/14 10:29:42;;;;;;;28.30;16.60;;;;;;;-6.07;79.65;99624.35;105589;1293;74489;-75
2022/12/14 10:32:28;;;;;;;27.40;17.50;;;;;;;-6.04;79.82;99628.26;105735;1292;69544;-75
2022/12/14 10:34:55;;;;;;;28.90;17.10;;;;;;;-5.97;80.22;99627.46;105803;1284;71472;-75
2022/12/14 10:37:33;;;;;;;27.40;16.80;;;;;;;-5.90;80.07;99628.23;105801;1283;60416;-75
2022/12/14 10:40:09;;;;;;;29.20;16.00;;;;;;;-5.83;79.95;99626.40;105619;1290;60143;-75
2022/12/14 10:43:37;;;;;;;25.50;14.90;;;;;;;-5.73;80.13;99627.66;105826;1283;73544;-75
2022/12/14 10:46:42;;;;;;;24.30;14.60;;;;;;;-5.61;79.90;99620.18;105629;1292;69688;-75
2022/12/14 10:49:21;;;;;;;23.40;14.50;;;;;;;-5.55;79.37;99615.47;105695;1284;73869;-75
2022/12/14 10:51:57;;;;;;;30.40;16.10;;;;;;;-5.47;79.62;99613.23;105815;1283;61284;-75
2022/12/14 10:54:32;;;;;;;25.00;14.60;;;;;;;-5.34;79.92;99608.80;105723;1290;60267;-75
2022/12/14 10:56:59;;;;;;;22.30;14.10;;;;;;;-5.25;79.55;99610.99;105815;1290;75500;-74
2022/12/14 10:59:28;;;;;;;27.40;15.00;;;;;;;-5.20;79.63;99612.38;105738;1283;70245;-74
2022/12/14 11:02:14;;;;;;;23.30;14.50;;;;;;;-5.06;80.00;99609.54;105697;1285;72812;-74
2022/12/14 11:04:49;;;;;;;25.60;14.70;;;;;;;-4.91;79.91;99605.96;105771;1287;60613;-75
2022/12/14 11:07:18;;;;;;;25.40;15.40;;;;;;;-4.76;80.06;99598.75;105816;1290;60353;-74
2022/12/14 11:09:46;;;;;;;26.20;15.10;;;;;;;-4.58;79.78;99601.34;105651;1294;72649;-75
2022/12/14 11:12:12;;;;;;;24.20;14.00;;;;;;;-4.29;79.63;99593.80;105684;1293;68749;-75
2022/12/14 11:14:55;;;;;;;23.70;14.80;;;;;;;-4.10;79.33;99593.52;105848;1287;58954;-75
2022/12/14 11:17:31;;;;;;;21.30;12.60;;;;;;;-3.92;79.00;99591.89;105751;1280;60626;-75
2022/12/14 11:20:16;;;;;;;22.10;13.00;;;;;;;-3.68;78.24;99587.41;105753;1286;59079;-74
2022/12/14 11:23:00;;;;;;;19.80;12.50;;;;;;;-3.28;78.23;99588.59;105669;1286;75315;-74
2022/12/14 11:25:42;;;;;;;18.80;11.60;;;;;;;-2.72;77.98;99583.56;105719;1290;70934;-75
2022/12/14 11:28:31;;;;;;;19.10;11.40;;;;;;;-2.12;77.28;99576.18;105579;1293;71467;-75
2022/12/14 11:31:12;;;;;;;20.10;11.30;;;;;;;-1.49;76.19;99582.16;105712;1284;61896;-75
2022/12/14 11:33:50;;;;;;;18.80;11.20;;;;;;;-1.02;74.37;99577.63;105761;1286;59208;-75
2022/12/14 11:36:31;;;;;;;19.00;11.50;;;;;;;-0.61;72.79;99575.95;105745;1290;74134;-74
2022/12/14 11:39:05;;;;;;;17.10;11.10;;;;;;;-0.21;71.77;99578.08;105597;1293;70578;-74
2022/12/14 11:41:37;;;;;;;19.00;11.10;;;;;;;0.22;71.01;99579.98;105654;1286;72676;-75
2022/12/14 11:44:17;;;;;;;17.00;11.10;;;;;;;0.67;69.82;99574.98;105655;1291;60048;-75
2022/12/14 11:46:59;;;;;;;18.90;11.20;;;;;;;1.16;68.85;99570.17;105737;1286;60898;-75